Time;durP1;ratioP1;P1;durP2;ratioP2;P2;SDS_P1;SDS_P2;PMS_P1;PMS_P2;Temp;Humidity;BMP_temperature;BMP_pressure;BME280_temperature;BME280_humidity;BME280_pressure;Samples;Min_cycle;Max_cycle;Signal;HPM_P1;HPM_P2
2023/01/08 00:00:47;;;;;;;9.84;8.55;;;;;;;-11.53;69.07;102634.81;457503;116;922574;-74
2023/01/08 00:01:50;;;;;;;9.18;8.31;;;;;;;-11.52;69.09;102631.26;457495;116;923340;-73
2023/01/08 00:02:53;;;;;;;8.48;7.67;;;;;;;-11.50;69.22;102640.02;457461;116;930424;-74
2023/01/08 00:03:57;;;;;;;9.46;8.41;;;;;;;-11.46;69.12;102638.19;457469;116;922852;-73
2023/01/08 00:05:00;;;;;;;9.14;8.24;;;;;;;-11.46;69.10;102644.32;458937;114;922602;-74
2023/01/08 00:06:05;;;;;;;10.14;9.21;;;;;;;-11.46;69.05;102652.22;462270;114;922879;-74
2023/01/08 00:07:08;;;;;;;8.67;7.83;;;;;;;-11.45;69.17;102646.06;462131;113;922656;-74
2023/01/08 00:08:12;;;;;;;9.96;8.06;;;;;;;-11.45;69.15;102646.06;462256;114;922469;-73
2023/01/08 00:09:15;;;;;;;9.60;8.63;;;;;;;-11.44;69.13;102642.55;462398;114;922637;-74
2023/01/08 00:10:18;;;;;;;9.66;8.66;;;;;;;-11.43;69.05;102644.29;458732;114;922620;-74
2023/01/08 00:11:21;;;;;;;10.47;8.94;;;;;;;-11.41;69.21;102636.37;457596;116;922800;-74
2023/01/08 00:12:24;;;;;;;8.59;7.79;;;;;;;-11.37;69.33;102639.81;457604;116;922867;-75
2023/01/08 00:13:28;;;;;;;11.07;8.74;;;;;;;-11.35;69.27;102638.01;457622;116;922614;-74
2023/01/08 00:14:31;;;;;;;9.20;8.39;;;;;;;-11.34;69.21;102643.25;457509;116;923446;-73
2023/01/08 00:15:34;;;;;;;10.51;8.28;;;;;;;-11.34;69.08;102635.36;457470;116;930544;-74
2023/01/08 00:16:38;;;;;;;9.27;8.03;;;;;;;-11.35;68.98;102644.14;457497;114;922508;-72
2023/01/08 00:17:41;;;;;;;9.46;8.24;;;;;;;-11.37;69.08;102640.69;457462;116;930460;-75
2023/01/08 00:18:45;;;;;;;9.41;8.51;;;;;;;-11.38;69.12;102636.31;457667;116;922513;-73
2023/01/08 00:19:49;;;;;;;9.55;8.37;;;;;;;-11.38;69.05;102635.44;458052;114;922821;-72
2023/01/08 00:20:52;;;;;;;8.83;7.92;;;;;;;-11.41;68.86;102642.48;462231;114;930457;-74
2023/01/08 00:21:55;;;;;;;9.29;8.29;;;;;;;-11.42;69.07;102646.03;462395;114;923005;-74
2023/01/08 00:22:58;;;;;;;10.18;8.24;;;;;;;-11.41;69.12;102649.53;462417;114;922847;-74
2023/01/08 00:24:02;;;;;;;8.70;7.74;;;;;;;-11.40;69.11;102648.62;462404;114;922621;-74
2023/01/08 00:25:06;;;;;;;9.56;8.70;;;;;;;-11.40;69.13;102652.12;459898;114;922867;-74
2023/01/08 00:26:10;;;;;;;9.38;8.48;;;;;;;-11.39;69.02;102652.99;457433;115;922651;-75
2023/01/08 00:27:13;;;;;;;10.26;8.50;;;;;;;-11.38;69.05;102659.12;457483;114;930380;-72
2023/01/08 00:28:16;;;;;;;9.92;7.96;;;;;;;-11.39;68.99;102668.78;457618;115;922548;-74
2023/01/08 00:29:20;;;;;;;8.95;8.03;;;;;;;-11.42;68.73;102664.45;457730;116;922514;-75
2023/01/08 00:30:23;;;;;;;9.91;8.94;;;;;;;-11.44;68.78;102670.63;457551;115;922462;-75
2023/01/08 00:31:26;;;;;;;9.89;8.51;;;;;;;-11.46;68.71;102670.64;457742;114;922410;-74
2023/01/08 00:32:29;;;;;;;9.16;8.25;;;;;;;-11.47;68.75;102661.03;457723;116;922572;-75
2023/01/08 00:33:33;;;;;;;8.75;7.87;;;;;;;-11.47;68.77;102670.69;457681;116;923266;-74
2023/01/08 00:34:36;;;;;;;10.20;8.61;;;;;;;-11.49;68.81;102665.44;457718;116;922845;-74
2023/01/08 00:35:39;;;;;;;10.39;8.33;;;;;;;-11.49;68.91;102662.81;460792;115;922845;-75
2023/01/08 00:36:43;;;;;;;8.93;8.05;;;;;;;-11.47;68.92;102670.69;460931;113;922522;-76
2023/01/08 00:37:48;;;;;;;8.84;7.95;;;;;;;-11.46;69.09;102664.50;460988;115;922594;-76
2023/01/08 00:38:51;;;;;;;9.78;8.71;;;;;;;-11.45;69.08;102664.48;460755;115;922681;-75
2023/01/08 00:39:54;;;;;;;9.54;8.24;;;;;;;-11.44;69.23;102663.60;459719;115;922552;-76
2023/01/08 00:40:58;;;;;;;11.49;8.79;;;;;;;-11.41;69.10;102663.54;457571;115;922567;-75
2023/01/08 00:42:01;;;;;;;10.42;9.36;;;;;;;-11.38;69.31;102659.12;457586;114;922436;-74
2023/01/08 00:43:04;;;;;;;10.71;9.66;;;;;;;-11.37;69.29;102661.75;457596;116;922529;-73
2023/01/08 00:44:07;;;;;;;9.64;8.65;;;;;;;-11.35;69.18;102657.30;457686;116;922544;-75
2023/01/08 00:45:10;;;;;;;10.15;9.23;;;;;;;-11.33;69.22;102660.80;458985;115;922726;-75
2023/01/08 00:46:15;;;;;;;11.01;9.55;;;;;;;-11.31;69.37;102660.78;460877;115;922300;-74
2023/01/08 00:47:18;;;;;;;11.67;9.56;;;;;;;-11.29;69.35;102661.59;461003;113;922425;-74
2023/01/08 00:48:21;;;;;;;10.36;9.38;;;;;;;-11.28;69.34;102663.34;461089;115;923017;-74
2023/01/08 00:49:25;;;;;;;10.41;9.41;;;;;;;-11.26;69.30;102664.20;461110;115;922245;-75
2023/01/08 00:50:28;;;;;;;10.29;9.25;;;;;;;-11.25;69.38;102661.55;457879;115;922429;-75
2023/01/08 00:51:31;;;;;;;9.88;8.89;;;;;;;-11.25;69.27;102664.19;457638;114;922728;-74
2023/01/08 00:52:34;;;;;;;10.86;9.24;;;;;;;-11.25;69.10;102663.31;457622;116;922533;-74
2023/01/08 00:53:37;;;;;;;10.47;9.43;;;;;;;-11.24;69.18;102667.66;457712;116;922375;-74
2023/01/08 00:54:40;;;;;;;9.97;9.04;;;;;;;-11.24;69.21;102665.89;457944;115;922690;-73
2023/01/08 00:55:44;;;;;;;10.39;9.39;;;;;;;-11.23;69.29;102667.64;457901;114;922231;-74
2023/01/08 00:56:47;;;;;;;10.56;9.51;;;;;;;-11.21;69.16;102664.98;457636;114;922907;-74
2023/01/08 00:57:50;;;;;;;9.66;8.78;;;;;;;-11.21;69.25;102670.25;457821;116;922396;-74
2023/01/08 00:58:54;;;;;;;10.29;8.96;;;;;;;-11.21;69.09;102662.36;457868;116;922703;-76
2023/01/08 00:59:57;;;;;;;10.02;9.03;;;;;;;-11.20;69.06;102669.37;457944;116;922542;-74
2023/01/08 01:01:00;;;;;;;10.80;9.68;;;;;;;-11.19;69.12;102665.84;458104;115;922315;-75
2023/01/08 01:02:03;;;;;;;9.52;8.63;;;;;;;-11.17;69.31;102664.03;458097;114;922603;-74
2023/01/08 01:03:06;;;;;;;10.20;9.21;;;;;;;-11.17;69.16;102664.03;458026;116;930469;-75
2023/01/08 01:04:10;;;;;;;8.99;8.22;;;;;;;-11.17;69.09;102661.41;457724;116;922491;-75
2023/01/08 01:05:16;;;;;;;10.47;8.19;;;;;;;-11.18;69.20;102662.29;459296;115;922260;-75
2023/01/08 01:06:19;;;;;;;9.67;8.76;;;;;;;-11.18;69.12;102657.89;460770;115;922957;-74
2023/01/08 01:07:22;;;;;;;8.69;7.88;;;;;;;-11.17;69.17;102662.27;460979;113;922572;-74
2023/01/08 01:08:26;;;;;;;9.86;8.94;;;;;;;-11.17;69.15;102664.91;460925;115;922562;-75
2023/01/08 01:09:29;;;;;;;9.61;8.59;;;;;;;-11.16;69.11;102668.41;460926;115;922413;-75
2023/01/08 01:10:32;;;;;;;9.48;8.65;;;;;;;-11.16;69.07;102657.88;457637;115;922558;-74
2023/01/08 01:11:35;;;;;;;9.82;8.84;;;;;;;-11.17;69.07;102667.54;457514;116;930476;-75
2023/01/08 01:12:39;;;;;;;9.79;8.81;;;;;;;-11.18;69.06;102663.16;457569;116;922549;-75
2023/01/08 01:13:42;;;;;;;10.55;9.46;;;;;;;-11.19;68.98;102665.84;457472;116;922527;-76
2023/01/08 01:14:45;;;;;;;9.45;8.53;;;;;;;-11.22;68.89;102661.48;457747;115;922390;-75
2023/01/08 01:16:00;;;;;;;9.49;8.46;;;;;;;-11.24;68.91;102659.76;460969;115;922960;-75
2023/01/08 01:17:03;;;;;;;9.64;8.72;;;;;;;-11.26;68.96;102662.44;460408;113;922591;-75
2023/01/08 01:18:07;;;;;;;9.34;8.44;;;;;;;-11.27;68.79;102662.45;460814;115;922572;-76
2023/01/08 01:19:10;;;;;;;9.86;8.65;;;;;;;-11.29;68.76;102664.23;460758;115;930243;-73
2023/01/08 01:20:15;;;;;;;11.06;8.77;;;;;;;-11.31;68.76;102660.78;458240;115;922876;-74
2023/01/08 01:21:22;;;;;;;10.83;8.92;;;;;;;-11.33;68.78;102658.16;457402;116;922575;-73
2023/01/08 01:22:25;;;;;;;9.71;8.81;;;;;;;-11.33;68.66;102663.42;457349;116;922666;-74
2023/01/08 01:23:28;;;;;;;9.71;8.78;;;;;;;-11.35;68.70;102665.20;457474;116;922499;-74
2023/01/08 01:24:32;;;;;;;8.93;7.86;;;;;;;-11.37;68.68;102667.02;457480;116;922846;-74
2023/01/08 01:25:38;;;;;;;9.11;8.19;;;;;;;-11.38;68.56;102667.90;457384;115;922759;-73
2023/01/08 01:26:41;;;;;;;9.19;8.14;;;;;;;-11.40;68.69;102662.66;457218;114;926678;-74
2023/01/08 01:27:45;;;;;;;9.37;8.09;;;;;;;-11.40;68.63;102664.41;455669;115;922526;-75
2023/01/08 01:28:50;;;;;;;9.67;8.66;;;;;;;-11.40;68.82;102665.28;455624;116;922504;-74
2023/01/08 01:29:53;;;;;;;10.03;8.38;;;;;;;-11.40;68.82;102667.91;455416;114;922495;-75
2023/01/08 01:30:56;;;;;;;9.94;8.93;;;;;;;-11.38;68.77;102665.27;455515;116;922995;-74
2023/01/08 01:32:00;;;;;;;9.41;8.45;;;;;;;-11.35;68.89;102669.59;455402;116;930708;-73
2023/01/08 01:33:03;;;;;;;11.24;9.07;;;;;;;-11.35;68.89;102665.20;455663;116;922869;-74
2023/01/08 01:34:06;;;;;;;10.09;9.09;;;;;;;-11.34;68.79;102666.08;455548;116;922502;-75
2023/01/08 01:35:09;;;;;;;9.88;8.89;;;;;;;-11.36;68.74;102663.48;456901;114;922526;-74
2023/01/08 01:36:15;;;;;;;10.27;8.93;;;;;;;-11.36;68.74;102662.62;457882;116;922502;-74
2023/01/08 01:37:18;;;;;;;9.85;8.27;;;;;;;-11.36;68.64;102663.48;457884;116;922834;-74
2023/01/08 01:38:22;;;;;;;9.48;8.28;;;;;;;-11.36;68.65;102660.86;457872;116;930516;-75
2023/01/08 01:39:25;;;;;;;9.55;8.62;;;;;;;-11.37;68.52;102664.37;458017;116;922417;-75
2023/01/08 01:40:28;;;;;;;9.55;8.65;;;;;;;-11.38;68.52;102661.77;455806;114;922428;-75
2023/01/08 01:41:40;;;;;;;10.53;9.48;;;;;;;-11.42;68.36;102661.83;455575;116;922492;-73
2023/01/08 01:42:44;;;;;;;9.42;8.38;;;;;;;-11.47;68.14;102661.03;455303;116;922618;-75
2023/01/08 01:43:47;;;;;;;9.61;8.62;;;;;;;-11.53;68.31;102666.39;455563;116;923240;-73
2023/01/08 01:44:50;;;;;;;9.13;8.23;;;;;;;-11.55;68.45;102665.53;455905;114;922882;-73
2023/01/08 01:45:53;;;;;;;9.45;8.56;;;;;;;-11.56;68.61;102661.16;458027;116;922533;-75
2023/01/08 01:46:56;;;;;;;9.18;8.28;;;;;;;-11.54;68.62;102663.77;457975;116;922934;-75
2023/01/08 01:48:04;;;;;;;9.84;8.81;;;;;;;-11.53;68.81;102660.25;457914;116;922523;-74
2023/01/08 01:49:11;;;;;;;9.41;8.48;;;;;;;-11.51;68.83;102664.58;457649;116;922771;-75
2023/01/08 01:50:26;;;;;;;10.06;9.06;;;;;;;-11.51;68.86;102666.34;455555;114;923241;-73
2023/01/08 01:51:33;;;;;;;11.86;8.17;;;;;;;-11.51;68.78;102669.84;455385;116;922498;-76
2023/01/08 01:52:45;;;;;;;11.53;7.96;;;;;;;-11.49;68.76;102675.97;455356;116;922490;-74
2023/01/08 01:53:56;;;;;;;9.48;8.64;;;;;;;-11.38;68.85;102670.53;482458;110;947127;-74
2023/01/08 01:55:00;;;;;;;9.55;8.67;;;;;;;-11.48;68.75;102677.71;470621;111;922487;-73
2023/01/08 01:56:04;;;;;;;9.79;8.58;;;;;;;-11.48;68.79;102682.98;465455;114;922530;-75
2023/01/08 01:57:07;;;;;;;9.61;8.69;;;;;;;-11.47;68.72;102683.84;465419;114;922478;-74
2023/01/08 01:58:14;;;;;;;10.11;8.73;;;;;;;-11.47;68.83;102675.95;465350;114;930514;-73
2023/01/08 01:59:17;;;;;;;10.23;8.44;;;;;;;-11.45;68.77;102679.41;465345;114;925533;-74
2023/01/08 02:00:22;;;;;;;10.29;9.21;;;;;;;-11.47;68.66;102679.45;464400;112;922541;-75
2023/01/08 02:01:26;;;;;;;9.49;8.53;;;;;;;-11.48;68.48;102672.45;463783;114;922729;-76
2023/01/08 02:02:31;;;;;;;10.62;9.72;;;;;;;-11.48;68.49;102674.20;463765;114;922430;-75
2023/01/08 02:03:39;;;;;;;10.04;9.12;;;;;;;-11.51;68.43;102669.84;463610;114;922653;-75
2023/01/08 02:04:42;;;;;;;11.74;10.12;;;;;;;-11.53;68.45;102668.15;464348;112;922664;-74
2023/01/08 02:05:55;;;;;;;10.11;9.08;;;;;;;-11.56;68.30;102678.70;465585;114;922559;-74
2023/01/08 02:07:14;;;;;;;9.80;8.85;;;;;;;-11.61;68.24;102673.52;465352;114;922465;-74
2023/01/08 02:08:20;;;;;;;10.33;9.37;;;;;;;-11.64;68.21;102670.08;465338;114;922505;-74
2023/01/08 02:09:49;;;;;;;10.00;9.00;;;;;;;-11.58;68.43;102673.48;477040;110;947064;-74
2023/01/08 02:11:08;;;;;;;9.88;8.81;;;;;;;-11.68;68.58;102677.13;463947;114;922436;-74
2023/01/08 02:12:32;;;;;;;9.69;8.73;;;;;;;-11.68;68.53;102670.98;457610;114;922525;-75
2023/01/08 02:13:39;;;;;;;11.06;9.70;;;;;;;-11.69;68.72;102675.41;455865;116;922500;-74
2023/01/08 02:15:00;;;;;;;10.22;9.27;;;;;;;-11.68;68.79;102670.98;454679;114;922545;-75
2023/01/08 02:16:25;;;;;;;9.86;8.28;;;;;;;-11.68;68.81;102677.13;457270;116;922915;-73
2023/01/08 02:17:38;;;;;;;10.00;9.03;;;;;;;-11.68;68.87;102666.59;457102;115;922873;-73
2023/01/08 02:18:47;;;;;;;9.18;8.24;;;;;;;-11.68;68.68;102674.49;457144;115;922605;-73
2023/01/08 02:19:54;;;;;;;9.92;8.66;;;;;;;-11.69;68.70;102664.89;455933;114;922946;-74
2023/01/08 02:21:10;;;;;;;10.26;9.27;;;;;;;-11.68;68.82;102663.09;449483;117;922612;-72
2023/01/08 02:22:35;;;;;;;9.53;8.41;;;;;;;-11.66;68.84;102666.59;449421;116;922582;-76
2023/01/08 02:23:54;;;;;;;9.98;8.79;;;;;;;-11.65;68.79;102677.09;449481;118;922633;-73
2023/01/08 02:25:12;;;;;;;11.72;9.71;;;;;;;-11.65;68.81;102677.09;450172;116;922505;-73
2023/01/08 02:26:30;;;;;;;9.62;8.67;;;;;;;-11.65;68.79;102674.46;449472;117;923078;-74
2023/01/08 02:27:36;;;;;;;10.26;9.26;;;;;;;-11.65;68.84;102679.73;449417;118;922524;-75
2023/01/08 02:28:58;;;;;;;9.46;8.47;;;;;;;-11.67;68.65;102673.61;449439;118;922497;-74
2023/01/08 02:30:03;;;;;;;12.43;8.91;;;;;;;-11.69;68.71;102671.91;452364;114;923023;-72
2023/01/08 02:31:07;;;;;;;9.78;8.82;;;;;;;-11.70;68.61;102676.30;457378;116;922938;-75
2023/01/08 02:32:10;;;;;;;10.98;9.61;;;;;;;-11.73;68.40;102673.73;457361;114;922575;-74
2023/01/08 02:33:14;;;;;;;11.21;9.84;;;;;;;-11.75;68.44;102674.66;457364;116;922880;-75
2023/01/08 02:34:17;;;;;;;11.03;9.74;;;;;;;-11.75;68.52;102678.16;457412;116;930506;-73
2023/01/08 02:35:20;;;;;;;10.26;9.11;;;;;;;-11.74;68.64;102682.50;452342;114;922977;-75
2023/01/08 02:36:27;;;;;;;10.59;9.48;;;;;;;-11.73;68.60;102684.25;449498;116;922549;-72
2023/01/08 02:37:30;;;;;;;10.91;9.57;;;;;;;-11.71;68.73;102678.94;449400;117;922906;-74
2023/01/08 02:38:33;;;;;;;10.63;9.53;;;;;;;-11.69;68.64;102687.70;449651;118;922545;-73
2023/01/08 02:39:46;;;;;;;11.83;9.79;;;;;;;-11.68;68.71;102690.28;449841;116;922483;-75
2023/01/08 02:40:55;;;;;;;10.86;9.84;;;;;;;-11.66;68.57;102691.14;449461;118;922627;-73
2023/01/08 02:42:17;;;;;;;10.10;9.09;;;;;;;-11.69;68.48;102685.94;449483;116;922535;-74
2023/01/08 02:43:27;;;;;;;10.77;9.67;;;;;;;-11.70;68.44;102688.58;449409;118;922615;-74
2023/01/08 02:45:04;;;;;;;9.73;8.49;;;;;;;-11.62;68.38;102687.56;476626;110;947159;-74
2023/01/08 02:46:12;;;;;;;10.24;9.03;;;;;;;-11.75;68.25;102686.05;457325;116;922848;-73
2023/01/08 02:47:18;;;;;;;9.07;8.22;;;;;;;-11.77;68.40;102686.95;462245;114;922559;-73
2023/01/08 02:48:38;;;;;;;10.16;9.16;;;;;;;-11.77;68.52;102676.43;461956;114;922505;-73
2023/01/08 02:49:44;;;;;;;9.64;8.61;;;;;;;-11.76;68.51;102678.17;463159;112;922791;-74
2023/01/08 02:50:54;;;;;;;10.32;9.23;;;;;;;-11.75;68.62;102680.80;471188;112;930401;-73
2023/01/08 02:52:01;;;;;;;9.17;8.19;;;;;;;-11.73;68.64;102684.25;471040;112;922946;-75
2023/01/08 02:53:08;;;;;;;10.05;9.03;;;;;;;-11.72;68.68;102692.98;471261;112;922938;-73
2023/01/08 02:54:15;;;;;;;9.73;8.79;;;;;;;-11.72;68.66;102690.35;470622;112;922558;-74
2023/01/08 02:55:21;;;;;;;10.20;9.24;;;;;;;-11.71;68.53;102689.47;468168;112;922557;-74
2023/01/08 02:56:28;;;;;;;8.96;8.08;;;;;;;-11.69;68.47;102695.59;463061;114;922507;-72
2023/01/08 02:57:33;;;;;;;9.38;8.46;;;;;;;-11.69;68.52;102692.95;463027;114;922629;-74
2023/01/08 02:58:37;;;;;;;10.62;8.91;;;;;;;-11.68;68.43;102699.93;462998;114;922600;-73
2023/01/08 02:59:43;;;;;;;9.59;8.63;;;;;;;-11.68;68.37;102687.64;463603;112;922532;-74
2023/01/08 03:00:47;;;;;;;10.04;8.92;;;;;;;-11.68;68.26;102692.91;471381;112;922512;-73
2023/01/08 03:01:51;;;;;;;11.02;9.44;;;;;;;-11.68;68.17;102692.03;471456;112;922895;-75
2023/01/08 03:03:01;;;;;;;9.75;8.81;;;;;;;-11.68;68.10;102687.64;471343;112;922523;-75
2023/01/08 03:04:15;;;;;;;10.38;9.38;;;;;;;-11.59;67.83;102703.32;491793;108;947115;-73
2023/01/08 03:05:22;;;;;;;11.58;9.28;;;;;;;-11.72;67.78;102696.48;479085;109;922576;-74
2023/01/08 03:06:27;;;;;;;11.77;9.29;;;;;;;-11.74;67.74;102705.34;481433;110;922395;-74
2023/01/08 03:07:31;;;;;;;9.83;8.87;;;;;;;-11.78;67.73;102701.86;473184;112;922851;-75
2023/01/08 03:08:37;;;;;;;10.51;9.48;;;;;;;-11.81;67.67;102701.92;473309;112;922551;-72
2023/01/08 03:09:40;;;;;;;10.14;9.19;;;;;;;-11.84;67.42;102708.08;473028;111;930482;-74
2023/01/08 03:10:47;;;;;;;9.99;8.99;;;;;;;-11.88;67.43;102710.77;472233;112;922425;-74
2023/01/08 03:11:54;;;;;;;10.43;9.38;;;;;;;-11.93;67.22;102709.97;472199;112;922551;-74
2023/01/08 03:13:04;;;;;;;10.78;9.53;;;;;;;-11.99;67.23;102708.29;471899;112;922421;-74
2023/01/08 03:14:10;;;;;;;11.03;9.63;;;;;;;-12.06;67.26;102716.27;472103;112;922595;-74
2023/01/08 03:15:17;;;;;;;11.15;9.63;;;;;;;-12.12;67.29;102713.70;469047;111;922836;-74
2023/01/08 03:16:24;;;;;;;10.03;8.76;;;;;;;-12.18;67.30;102705.92;465989;113;922576;-73
2023/01/08 03:17:31;;;;;;;10.42;9.41;;;;;;;-12.24;67.33;102713.88;465234;113;922492;-73
2023/01/08 03:18:37;;;;;;;11.44;10.40;;;;;;;-12.27;67.19;102717.41;466111;113;922937;-74
2023/01/08 03:19:44;;;;;;;10.06;8.72;;;;;;;-12.31;67.22;102721.84;466805;111;922571;-75
2023/01/08 03:20:49;;;;;;;12.55;10.41;;;;;;;-12.34;67.02;102716.59;474587;111;922454;-74
2023/01/08 03:21:54;;;;;;;11.24;10.08;;;;;;;-12.37;67.10;102713.14;474502;110;922541;-73
2023/01/08 03:23:00;;;;;;;12.53;10.37;;;;;;;-12.43;67.03;102708.83;474668;111;922469;-74
2023/01/08 03:24:05;;;;;;;11.03;9.93;;;;;;;-12.46;67.21;102716.77;474642;111;922496;-74
2023/01/08 03:25:09;;;;;;;13.58;9.05;;;;;;;-12.48;67.27;102718.52;474577;111;922586;-75
2023/01/08 03:26:15;;;;;;;11.17;9.96;;;;;;;-12.50;67.23;102715.03;474698;111;923106;-72
2023/01/08 03:27:25;;;;;;;9.77;8.44;;;;;;;-12.50;67.33;102715.03;474549;110;922978;-74
2023/01/08 03:28:32;;;;;;;11.60;10.42;;;;;;;-12.49;67.50;102718.53;474773;111;922499;-74
2023/01/08 03:29:37;;;;;;;10.74;9.57;;;;;;;-12.48;67.42;102715.89;474387;111;922460;-73
2023/01/08 03:30:42;;;;;;;11.06;9.82;;;;;;;-12.49;67.21;102716.78;474510;111;922939;-73
2023/01/08 03:31:48;;;;;;;11.02;9.95;;;;;;;-12.50;67.18;102717.66;474576;109;922481;-73
2023/01/08 03:32:53;;;;;;;11.39;10.17;;;;;;;-12.49;67.12;102716.78;474630;111;922458;-73
2023/01/08 03:33:58;;;;;;;11.92;10.18;;;;;;;-12.50;67.08;102712.41;474564;111;922549;-74
2023/01/08 03:35:03;;;;;;;11.88;9.88;;;;;;;-12.51;67.08;102718.54;474474;111;922461;-73
2023/01/08 03:36:08;;;;;;;11.87;10.68;;;;;;;-12.50;67.09;102717.66;474596;111;922879;-74
2023/01/08 03:37:13;;;;;;;10.15;9.18;;;;;;;-12.48;67.06;102712.39;474569;109;922843;-74
2023/01/08 03:38:23;;;;;;;12.02;9.34;;;;;;;-12.48;66.94;102712.39;474523;111;922600;-74
2023/01/08 03:39:32;;;;;;;11.80;9.78;;;;;;;-12.47;67.08;102720.27;474681;111;922442;-73
2023/01/08 03:40:39;;;;;;;10.12;9.01;;;;;;;-12.45;67.19;102718.47;473489;111;922543;-73
2023/01/08 03:41:43;;;;;;;13.44;9.49;;;;;;;-12.43;67.35;102716.71;474584;111;922853;-73
2023/01/08 03:42:46;;;;;;;10.62;9.49;;;;;;;-12.37;67.41;102714.02;474719;111;922464;-72
2023/01/08 03:43:49;;;;;;;11.08;9.01;;;;;;;-12.34;67.38;102711.34;474647;111;922541;-74
2023/01/08 03:44:53;;;;;;;10.29;9.34;;;;;;;-12.31;67.57;102710.45;474549;111;922570;-74
2023/01/08 03:45:59;;;;;;;10.19;9.19;;;;;;;-12.27;67.59;102712.14;474659;111;922431;-74
2023/01/08 03:47:04;;;;;;;9.70;8.82;;;;;;;-12.22;67.76;102709.45;474566;110;922374;-75
2023/01/08 03:48:08;;;;;;;10.82;9.75;;;;;;;-12.20;67.85;102711.20;474584;111;922488;-74
2023/01/08 03:49:12;;;;;;;12.06;10.01;;;;;;;-12.18;67.79;102705.92;474616;111;922500;-73
2023/01/08 03:50:20;;;;;;;10.26;9.22;;;;;;;-12.18;67.72;102713.81;474404;111;922445;-74
2023/01/08 03:51:23;;;;;;;10.71;8.89;;;;;;;-12.17;67.77;102710.27;474490;111;930351;-75
2023/01/08 03:52:29;;;;;;;10.88;9.78;;;;;;;-12.15;67.89;102708.50;474700;111;922446;-75
2023/01/08 03:53:32;;;;;;;10.41;9.42;;;;;;;-12.13;67.91;102712.00;474550;111;922889;-74
2023/01/08 03:54:36;;;;;;;10.92;9.48;;;;;;;-12.12;67.87;102711.08;474694;111;922489;-72
2023/01/08 03:55:39;;;;;;;10.46;9.45;;;;;;;-12.11;67.92;102712.83;474406;110;922460;-74
2023/01/08 03:56:42;;;;;;;10.69;9.76;;;;;;;-12.10;67.97;102709.31;474635;110;922792;-73
2023/01/08 03:57:46;;;;;;;12.16;10.64;;;;;;;-12.09;68.00;102703.17;474706;111;922553;-74
2023/01/08 03:58:49;;;;;;;10.07;9.06;;;;;;;-12.07;67.89;102704.03;474672;111;930123;-74
2023/01/08 03:59:52;;;;;;;10.70;9.49;;;;;;;-12.09;67.71;102706.67;474553;111;922523;-74
2023/01/08 04:00:55;;;;;;;10.89;8.96;;;;;;;-12.11;67.69;102707.56;474728;111;922399;-74
2023/01/08 04:01:58;;;;;;;11.13;9.98;;;;;;;-12.16;67.52;102707.63;474741;110;922977;-74
2023/01/08 04:03:02;;;;;;;10.94;9.80;;;;;;;-12.17;67.55;102707.64;474673;111;922853;-74
2023/01/08 04:04:07;;;;;;;10.83;9.46;;;;;;;-12.19;67.62;102709.44;474350;111;930651;-73
2023/01/08 04:05:11;;;;;;;10.91;9.81;;;;;;;-12.21;67.65;102703.31;474578;111;922967;-74
2023/01/08 04:06:14;;;;;;;10.56;9.53;;;;;;;-12.21;67.75;102705.95;474649;111;922929;-74
2023/01/08 04:07:17;;;;;;;10.78;9.37;;;;;;;-12.20;67.81;102705.06;474738;109;922979;-74
2023/01/08 04:08:21;;;;;;;9.84;8.82;;;;;;;-12.19;67.83;102699.80;474759;111;922487;-74
2023/01/08 04:09:24;;;;;;;13.00;8.81;;;;;;;-12.19;67.58;102705.05;474765;111;922503;-73
2023/01/08 04:10:27;;;;;;;9.94;8.61;;;;;;;-12.19;67.58;102712.06;474435;111;922544;-74
2023/01/08 04:11:31;;;;;;;10.29;9.11;;;;;;;-12.18;67.74;102711.19;474684;110;922533;-74
2023/01/08 04:12:34;;;;;;;11.55;9.19;;;;;;;-12.17;67.67;102708.52;474680;111;922480;-74
2023/01/08 04:13:37;;;;;;;9.87;8.94;;;;;;;-12.16;67.67;102710.26;474725;111;922579;-74
2023/01/08 04:14:40;;;;;;;10.14;8.96;;;;;;;-12.15;67.75;102704.12;474501;111;922462;-74
2023/01/08 04:15:50;;;;;;;11.11;10.03;;;;;;;-12.13;67.76;102704.11;474653;111;922614;-73
2023/01/08 04:16:54;;;;;;;9.90;8.78;;;;;;;-12.12;67.63;102705.82;474137;110;922998;-73
2023/01/08 04:17:57;;;;;;;9.94;9.01;;;;;;;-12.10;67.84;102709.31;474569;111;923124;-73
2023/01/08 04:19:00;;;;;;;10.69;9.02;;;;;;;-12.08;67.72;102705.79;474636;111;922479;-74
2023/01/08 04:20:04;;;;;;;12.81;9.67;;;;;;;-12.06;67.88;102706.62;474380;111;922465;-74
2023/01/08 04:21:07;;;;;;;15.17;9.85;;;;;;;-12.05;67.79;102713.63;474583;111;922508;-74
2023/01/08 04:22:10;;;;;;;12.43;9.95;;;;;;;-12.02;67.95;102708.34;474646;110;922522;-72
2023/01/08 04:23:14;;;;;;;10.03;9.03;;;;;;;-12.01;67.78;102707.43;474595;111;922497;-74
2023/01/08 04:24:17;;;;;;;10.16;9.14;;;;;;;-12.01;67.78;102709.19;474618;111;922616;-74
2023/01/08 04:25:20;;;;;;;10.86;9.51;;;;;;;-12.01;67.71;102711.81;474552;111;922502;-74
2023/01/08 04:26:24;;;;;;;12.69;9.48;;;;;;;-12.00;67.86;102717.06;474584;110;922392;-75
2023/01/08 04:27:27;;;;;;;10.38;9.33;;;;;;;-11.98;67.96;102712.66;474645;111;922611;-74
2023/01/08 04:28:30;;;;;;;10.43;9.39;;;;;;;-11.96;67.93;102712.66;474615;111;922539;-75
2023/01/08 04:29:33;;;;;;;10.45;8.90;;;;;;;-11.94;67.92;102705.59;474621;111;922534;-75
2023/01/08 04:30:37;;;;;;;10.44;9.08;;;;;;;-11.94;67.89;102708.22;474375;111;922613;-73
2023/01/08 04:31:40;;;;;;;10.60;9.27;;;;;;;-11.93;67.96;102709.97;474597;110;922538;-73
2023/01/08 04:32:43;;;;;;;9.64;8.71;;;;;;;-11.93;67.99;102708.21;474544;111;922465;-75
2023/01/08 04:33:46;;;;;;;9.68;8.68;;;;;;;-11.91;67.90;102713.46;474629;111;922586;-74
2023/01/08 04:34:49;;;;;;;9.86;8.73;;;;;;;-11.90;68.05;102718.67;474534;110;922410;-74
2023/01/08 04:35:53;;;;;;;12.25;9.61;;;;;;;-11.87;68.09;102713.39;474656;111;922429;-73
2023/01/08 04:36:56;;;;;;;10.33;9.33;;;;;;;-11.86;68.05;102724.79;474551;110;922589;-73
2023/01/08 04:37:59;;;;;;;9.79;8.79;;;;;;;-11.86;67.97;102716.90;474621;111;922581;-73
2023/01/08 04:39:03;;;;;;;9.66;8.49;;;;;;;-11.88;67.95;102714.28;474637;111;922501;-73
2023/01/08 04:40:07;;;;;;;9.94;8.98;;;;;;;-11.87;67.80;102717.78;474261;111;923446;-74
2023/01/08 04:41:10;;;;;;;10.80;9.24;;;;;;;-11.89;67.74;102714.29;474602;111;922902;-74
2023/01/08 04:42:13;;;;;;;10.01;9.04;;;;;;;-11.91;67.66;102713.46;474640;110;922574;-74
2023/01/08 04:43:17;;;;;;;11.24;8.41;;;;;;;-11.93;67.61;102720.48;474679;111;922979;-75
2023/01/08 04:44:20;;;;;;;11.48;9.34;;;;;;;-11.95;67.79;102715.24;474683;111;922529;-75
2023/01/08 04:45:23;;;;;;;12.80;9.04;;;;;;;-11.96;67.62;102720.55;474653;111;922524;-74
2023/01/08 04:46:26;;;;;;;9.57;8.59;;;;;;;-11.98;67.72;102722.31;474585;111;922767;-74
2023/01/08 04:47:29;;;;;;;9.73;8.46;;;;;;;-12.00;67.71;102719.69;474632;111;925423;-74
2023/01/08 04:48:33;;;;;;;10.64;8.61;;;;;;;-12.01;67.70;102723.20;474663;111;922507;-74
2023/01/08 04:49:36;;;;;;;10.39;8.82;;;;;;;-12.02;67.53;102725.88;474278;110;922630;-74
2023/01/08 04:50:39;;;;;;;10.82;9.70;;;;;;;-12.03;67.52;102725.00;474658;111;922771;-73
2023/01/08 04:51:42;;;;;;;9.73;8.78;;;;;;;-12.03;67.58;102727.63;474643;110;922504;-73
2023/01/08 04:52:45;;;;;;;9.58;8.58;;;;;;;-12.02;67.62;102728.51;474631;111;922428;-73
2023/01/08 04:53:48;;;;;;;10.70;9.58;;;;;;;-12.01;67.61;102728.47;474630;111;922495;-75
2023/01/08 04:54:51;;;;;;;10.75;9.67;;;;;;;-12.00;67.65;102732.84;474499;111;922509;-73
2023/01/08 04:55:54;;;;;;;10.78;9.53;;;;;;;-11.98;67.74;102727.57;478472;110;922497;-74